createdAt,value
2018-05-10T00:00:12.032Z,77.65
2018-05-10T00:01:12.053Z,77.74
2018-05-10T00:02:12.074Z,78.13
2018-05-10T00:03:12.069Z,79.75
2018-05-10T00:04:12.076Z,79.46
2018-05-10T00:05:12.091Z,79.46
2018-05-10T00:06:12.099Z,79.94
2018-05-10T00:07:12.109Z,80.19
2018-05-10T00:08:12.123Z,79.99
2018-05-10T00:09:12.145Z,80.38
2018-05-10T00:10:12.150Z,80.47
2018-05-10T00:11:12.157Z,80.19
2018-05-10T00:12:12.167Z,80.19
2018-05-10T00:13:12.179Z,79.46
2018-05-10T00:14:12.201Z,79.99
2018-05-10T00:15:12.219Z,79.99
2018-05-10T00:16:12.210Z,80.28
2018-05-10T00:17:12.222Z,80.38
2018-05-10T00:18:12.229Z,79.46
2018-05-10T00:19:12.248Z,79.94
2018-05-10T00:20:12.255Z,79.56
2018-05-10T00:21:12.273Z,78.89
2018-05-10T00:22:12.277Z,79.08
2018-05-10T00:23:12.289Z,79.17
2018-05-10T00:24:12.385Z,77.94
2018-05-10T00:25:12.311Z,77.36
2018-05-10T00:26:12.321Z,78.22
2018-05-10T00:27:12.340Z,77.45
2018-05-10T00:28:12.341Z,78.18
2018-05-10T00:29:12.357Z,78.70
2018-05-10T00:30:12.370Z,78.22
2018-05-10T00:31:12.373Z,78.13
2018-05-10T00:32:12.385Z,78.03
2018-05-10T00:33:12.405Z,77.55
2018-05-10T00:34:12.405Z,77.61
2018-05-10T00:35:12.419Z,77.99
2018-05-10T00:36:12.431Z,78.18
2018-05-10T00:37:12.438Z,77.55
2018-05-10T00:38:12.451Z,78.37
2018-05-10T00:39:12.471Z,78.75
2018-05-10T00:40:12.491Z,77.89
2018-05-10T00:41:12.483Z,77.70
2018-05-10T00:42:12.492Z,78.31
2018-05-10T00:43:12.508Z,77.84
2018-05-10T00:44:12.512Z,78.18
2018-05-10T00:45:12.552Z,78.70
2018-05-10T00:46:12.537Z,79.14
2018-05-10T00:47:12.556Z,78.70
2018-05-10T00:48:12.565Z,78.85
2018-05-10T00:49:12.573Z,78.41
2018-05-10T00:50:12.582Z,78.13
2018-05-10T00:51:12.590Z,79.04
2018-05-10T00:52:12.603Z,78.79
2018-05-10T00:53:12.614Z,78.79
2018-05-10T00:54:12.626Z,78.31
2018-05-10T00:55:12.636Z,78.51
2018-05-10T00:56:12.644Z,78.03
2018-05-10T00:57:12.653Z,78.31
2018-05-10T00:58:12.668Z,78.47
2018-05-10T00:59:12.692Z,78.18
2018-05-10T01:00:12.699Z,78.28
2018-05-10T01:01:12.699Z,77.89
2018-05-10T01:02:12.742Z,78.28
2018-05-10T01:03:12.747Z,78.37
2018-05-10T01:04:12.731Z,79.23
2018-05-10T01:05:12.744Z,78.18
2018-05-10T01:06:12.755Z,78.66
2018-05-10T01:07:12.765Z,78.94
2018-05-10T01:08:12.781Z,79.33
2018-05-10T01:09:12.782Z,79.33
2018-05-10T01:10:12.796Z,79.14
2018-05-10T01:11:12.805Z,79.04
2018-05-10T01:12:12.814Z,79.14
2018-05-10T01:13:12.827Z,79.04
2018-05-10T01:14:12.837Z,78.60
2018-05-10T01:15:12.991Z,79.14
2018-05-10T01:16:12.857Z,78.85
2018-05-10T01:17:12.874Z,79.33
2018-05-10T01:18:12.877Z,79.57
2018-05-10T01:19:12.887Z,79.77
2018-05-10T01:20:12.900Z,80.24
2018-05-10T01:21:12.919Z,79.38
2018-05-10T01:22:12.919Z,79.61
2018-05-10T01:23:12.937Z,79.33
2018-05-10T01:24:12.942Z,79.61
2018-05-10T01:25:12.953Z,79.61
2018-05-10T01:26:12.966Z,79.28
2018-05-10T01:27:12.986Z,80.24
2018-05-10T01:28:12.991Z,81.44
2018-05-10T01:29:12.994Z,81.86
2018-05-10T01:30:13.008Z,81.86
2018-05-10T01:31:13.020Z,81.38
2018-05-10T01:32:13.033Z,81.20
2018-05-10T01:33:13.037Z,80.53
2018-05-10T01:34:13.047Z,80.24
2018-05-10T01:35:13.059Z,80.15
2018-05-10T01:36:13.069Z,79.38
2018-05-10T01:37:13.081Z,79.19
2018-05-10T01:38:13.092Z,79.90
2018-05-10T01:39:13.099Z,79.33
2018-05-10T01:40:13.111Z,79.33
2018-05-10T01:41:13.124Z,78.85
2018-05-10T01:42:13.140Z,78.75
2018-05-10T01:43:13.182Z,77.80
2018-05-10T01:44:13.163Z,78.28
2018-05-10T01:45:13.162Z,78.94
2018-05-10T01:46:13.183Z,79.10
2018-05-10T01:47:13.195Z,79.48
2018-05-10T01:48:13.191Z,79.48
2018-05-10T01:49:13.203Z,79.48
2018-05-10T01:50:13.222Z,79.86
2018-05-10T01:51:13.224Z,80.43
2018-05-10T01:52:13.240Z,81.63
2018-05-10T01:53:13.252Z,81.86
2018-05-10T01:54:13.258Z,81.29
2018-05-10T01:55:13.267Z,81.58
2018-05-10T01:56:13.283Z,81.20
2018-05-10T01:57:13.308Z,81.10
2018-05-10T01:58:13.305Z,80.91
2018-05-10T01:59:13.310Z,81.10
2018-05-10T02:00:13.330Z,80.53
2018-05-10T02:01:13.335Z,80.62
2018-05-10T02:02:13.340Z,81.20
2018-05-10T02:03:13.376Z,80.96
2018-05-10T02:04:13.360Z,80.62
2018-05-10T02:05:13.370Z,81.58
2018-05-10T02:06:13.383Z,81.01
2018-05-10T02:07:13.394Z,80.81
2018-05-10T02:08:13.401Z,80.53
2018-05-10T02:09:13.419Z,80.68
2018-05-10T02:10:13.421Z,80.53
2018-05-10T02:11:13.436Z,80.81
2018-05-10T02:12:13.447Z,80.62
2018-05-10T02:13:13.458Z,80.53
2018-05-10T02:14:13.466Z,80.15
2018-05-10T02:15:13.474Z,80.24
2018-05-10T02:16:13.493Z,80.91
2018-05-10T02:17:13.521Z,81.25
2018-05-10T02:18:13.507Z,82.01
2018-05-10T02:19:13.520Z,82.20
2018-05-10T02:20:13.533Z,82.68
2018-05-10T02:21:13.539Z,83.25
2018-05-10T02:22:13.546Z,82.40
2018-05-10T02:23:13.564Z,82.01
2018-05-10T02:24:13.571Z,81.82
2018-05-10T02:25:13.585Z,82.20
2018-05-10T02:26:13.591Z,80.39
2018-05-10T02:27:13.597Z,80.77
2018-05-10T02:28:13.611Z,80.81
2018-05-10T02:29:13.618Z,81.20
2018-05-10T02:30:13.630Z,81.15
2018-05-10T02:31:13.656Z,81.29
2018-05-10T02:32:13.661Z,81.20
2018-05-10T02:33:13.659Z,81.38
2018-05-10T02:34:13.674Z,81.29
2018-05-10T02:35:13.686Z,80.53
2018-05-10T02:36:13.690Z,80.81
2018-05-10T02:37:13.707Z,80.91
2018-05-10T02:38:13.721Z,80.15
2018-05-10T02:39:13.723Z,80.24
2018-05-10T02:40:13.741Z,79.57
2018-05-10T02:41:13.744Z,79.96
2018-05-10T02:42:13.755Z,80.15
2018-05-10T02:43:13.767Z,80.20
2018-05-10T02:44:13.783Z,80.30
2018-05-10T02:45:13.787Z,80.01
2018-05-10T02:46:13.794Z,80.15
2018-05-10T02:47:13.802Z,80.11
2018-05-10T02:48:13.828Z,80.30
2018-05-10T02:49:13.829Z,80.24
2018-05-10T02:50:13.837Z,80.01
2018-05-10T02:51:13.846Z,80.77
2018-05-10T02:52:13.856Z,80.77
2018-05-10T02:53:13.874Z,80.77
2018-05-10T02:54:13.876Z,81.15
2018-05-10T02:55:13.885Z,81.49
2018-05-10T02:56:13.897Z,82.64
2018-05-10T02:57:13.912Z,83.12
2018-05-10T02:58:13.919Z,83.50
2018-05-10T02:59:13.932Z,83.21
2018-05-10T03:00:13.935Z,83.59
2018-05-10T03:01:13.947Z,84.26
2018-05-10T03:02:13.958Z,84.36
2018-05-10T03:03:13.968Z,84.55
2018-05-10T03:04:13.993Z,84.07
2018-05-10T03:05:13.986Z,84.64
2018-05-10T03:06:13.996Z,84.92
2018-05-10T03:07:14.013Z,84.49
2018-05-10T03:08:14.019Z,84.74
2018-05-10T03:09:14.031Z,84.59
2018-05-10T03:10:14.040Z,84.49
2018-05-10T03:11:14.047Z,84.01
2018-05-10T03:12:14.057Z,83.73
2018-05-10T03:13:14.095Z,83.73
2018-05-10T03:14:14.083Z,83.92
2018-05-10T03:15:14.089Z,83.83
2018-05-10T03:16:14.103Z,83.83
2018-05-10T03:17:14.110Z,84.49
2018-05-10T03:18:14.119Z,83.92
2018-05-10T03:19:14.137Z,83.83
2018-05-10T03:20:14.147Z,83.83
2018-05-10T03:21:14.150Z,84.40
2018-05-10T03:22:14.158Z,84.59
2018-05-10T03:23:14.170Z,84.40
2018-05-10T03:24:14.181Z,84.59
2018-05-10T03:25:14.189Z,84.97
2018-05-10T03:26:14.200Z,84.88
2018-05-10T03:27:14.219Z,84.69
2018-05-10T03:28:14.227Z,84.49
2018-05-10T03:29:14.229Z,84.11
2018-05-10T03:30:14.274Z,84.01
2018-05-10T03:31:14.254Z,83.73
2018-05-10T03:32:14.260Z,84.69
2018-05-10T03:33:14.349Z,85.16
2018-05-10T03:34:14.283Z,85.35
2018-05-10T03:35:14.304Z,85.73
2018-05-10T03:36:14.306Z,85.35
2018-05-10T03:37:14.311Z,85.45
2018-05-10T03:38:14.381Z,84.59
2018-05-10T03:39:14.335Z,84.88
2018-05-10T03:40:14.353Z,85.54
2018-05-10T03:41:14.350Z,86.40
2018-05-10T03:42:14.372Z,86.30
2018-05-10T03:43:14.372Z,87.07
2018-05-10T03:44:14.384Z,87.16
2018-05-10T03:45:14.404Z,87.93
2018-05-10T03:46:14.411Z,88.50
2018-05-10T03:47:14.412Z,88.50
2018-05-10T03:48:14.425Z,88.21
2018-05-10T03:49:14.432Z,87.64
2018-05-10T03:50:14.448Z,87.16
2018-05-10T03:51:14.456Z,87.54
2018-05-10T03:52:14.463Z,87.83
2018-05-10T03:53:14.474Z,88.02
2018-05-10T03:54:14.482Z,88.69
2018-05-10T03:55:14.497Z,89.45
2018-05-10T03:56:14.501Z,90.03
2018-05-10T03:57:14.519Z,89.64
2018-05-10T03:58:14.524Z,90.22
2018-05-10T03:59:14.534Z,90.31
2018-05-10T04:00:14.554Z,89.36
2018-05-10T04:01:14.569Z,88.83
2018-05-10T04:02:14.564Z,88.31
2018-05-10T04:03:14.583Z,88.26
2018-05-10T04:04:14.584Z,88.16
2018-05-10T04:05:14.594Z,88.64
2018-05-10T04:06:14.631Z,88.64
2018-05-10T04:07:14.616Z,88.78
2018-05-10T04:08:14.633Z,89.12
2018-05-10T04:09:14.634Z,88.88
2018-05-10T04:10:14.649Z,88.98
2018-05-10T04:11:14.660Z,88.92
2018-05-10T04:12:14.669Z,89.12
2018-05-10T04:13:14.677Z,89.93
2018-05-10T04:14:14.707Z,90.03
2018-05-10T04:15:14.694Z,90.69
2018-05-10T04:16:14.708Z,90.55
2018-05-10T04:17:14.717Z,89.59
2018-05-10T04:18:14.729Z,89.59
2018-05-10T04:19:14.736Z,89.21
2018-05-10T04:20:14.751Z,89.21
2018-05-10T04:21:14.757Z,89.78
2018-05-10T04:22:14.789Z,89.88
2018-05-10T04:23:15.073Z,90.45
2018-05-10T04:24:14.795Z,90.73
2018-05-10T04:25:14.815Z,90.26
2018-05-10T04:26:14.816Z,90.64
2018-05-10T04:27:14.824Z,90.73
2018-05-10T04:28:14.829Z,90.73
2018-05-10T04:29:14.837Z,91.88
2018-05-10T04:30:15.171Z,90.93
2018-05-10T04:31:14.868Z,91.21
2018-05-10T04:32:14.881Z,91.69
2018-05-10T04:33:14.884Z,92.17
2018-05-10T04:34:14.890Z,92.69
2018-05-10T04:35:14.917Z,91.55
2018-05-10T04:36:14.909Z,91.45
2018-05-10T04:37:14.923Z,91.36
2018-05-10T04:38:14.938Z,90.88
2018-05-10T04:39:14.946Z,90.50
2018-05-10T04:40:14.950Z,90.40
2018-05-10T04:41:14.963Z,90.31
2018-05-10T04:42:14.976Z,90.50
2018-05-10T04:43:14.985Z,91.45
2018-05-10T04:44:14.997Z,91.74
2018-05-10T04:45:15.014Z,91.26
2018-05-10T04:46:15.096Z,91.83
2018-05-10T04:47:15.031Z,91.93
2018-05-10T04:48:15.033Z,90.97
2018-05-10T04:49:15.052Z,91.07
2018-05-10T04:50:15.056Z,91.45
2018-05-10T04:51:15.066Z,91.93
2018-05-10T04:52:15.074Z,92.69
2018-05-10T04:53:15.088Z,93.17
2018-05-10T04:54:15.097Z,93.46
2018-05-10T04:55:15.107Z,93.46
2018-05-10T04:56:15.125Z,93.70
2018-05-10T04:57:15.127Z,93.98
2018-05-10T04:58:15.140Z,93.79
2018-05-10T04:59:15.147Z,93.79
2018-05-10T05:00:15.166Z,93.12
2018-05-10T05:01:15.169Z,93.31
2018-05-10T05:02:15.188Z,93.16
2018-05-10T05:03:15.190Z,94.22
2018-05-10T05:04:15.226Z,94.12
2018-05-10T05:05:15.211Z,93.55
2018-05-10T05:06:15.318Z,93.36
2018-05-10T05:07:15.236Z,91.54
2018-05-10T05:08:15.256Z,92.21
2018-05-10T05:09:15.252Z,93.65
2018-05-10T05:10:15.269Z,92.93
2018-05-10T05:11:15.275Z,91.59
2018-05-10T05:12:15.297Z,91.39
2018-05-10T05:13:15.311Z,91.49
2018-05-10T05:14:15.308Z,90.63
2018-05-10T05:15:15.323Z,91.02
2018-05-10T05:16:15.329Z,90.06
2018-05-10T05:17:15.346Z,89.15
2018-05-10T05:18:15.353Z,89.81
2018-05-10T05:19:15.360Z,90.30
2018-05-10T05:20:15.376Z,89.24
2018-05-10T05:21:15.384Z,88.48
2018-05-10T05:22:15.421Z,88.38
2018-05-10T05:23:15.404Z,89.34
2018-05-10T05:24:15.415Z,88.95
2018-05-10T05:25:15.424Z,88.00
2018-05-10T05:26:15.447Z,87.62
2018-05-10T05:27:15.473Z,86.76
2018-05-10T05:28:15.461Z,86.47
2018-05-10T05:29:15.482Z,86.76
2018-05-10T05:30:15.482Z,86.37
2018-05-10T05:31:15.496Z,86.32
2018-05-10T05:32:15.505Z,86.80
2018-05-10T05:33:15.512Z,86.22
2018-05-10T05:34:15.535Z,85.65
2018-05-10T05:35:15.542Z,86.70
2018-05-10T05:36:15.548Z,86.04
2018-05-10T05:37:15.562Z,85.08
2018-05-10T05:38:15.571Z,85.46
2018-05-10T05:39:15.582Z,84.98
2018-05-10T05:40:15.596Z,85.94
2018-05-10T05:41:15.636Z,85.46
2018-05-10T05:42:15.616Z,85.84
2018-05-10T05:43:15.708Z,85.08
2018-05-10T05:44:15.636Z,85.94
2018-05-10T05:45:15.649Z,85.75
2018-05-10T05:46:15.661Z,85.88
2018-05-10T05:47:15.677Z,85.02
2018-05-10T05:48:15.682Z,85.02
2018-05-10T05:49:15.690Z,84.83
2018-05-10T05:50:15.703Z,85.60
2018-05-10T05:51:15.749Z,86.08
2018-05-10T05:52:15.727Z,84.92
2018-05-10T05:53:15.739Z,85.41
2018-05-10T05:54:15.748Z,85.50
2018-05-10T05:55:15.757Z,84.55
2018-05-10T05:56:15.808Z,85.02
2018-05-10T05:57:15.781Z,84.92
2018-05-10T05:58:15.795Z,86.55
2018-05-10T05:59:15.807Z,87.32
2018-05-10T06:00:15.814Z,88.18
2018-05-10T06:01:15.835Z,87.51
2018-05-10T06:02:15.849Z,87.41
2018-05-10T06:03:15.872Z,87.80
2018-05-10T06:04:15.860Z,88.47
2018-05-10T06:05:15.869Z,90.00
2018-05-10T06:06:15.884Z,90.67
2018-05-10T06:07:15.896Z,90.48
2018-05-10T06:08:15.909Z,90.09
2018-05-10T06:09:15.918Z,90.19
2018-05-10T06:10:15.931Z,90.67
2018-05-10T06:11:15.940Z,90.19
2018-05-10T06:12:15.967Z,90.29
2018-05-10T06:13:15.966Z,89.72
2018-05-10T06:14:16.016Z,89.09
2018-05-10T06:15:15.988Z,89.29
2018-05-10T06:16:16.002Z,90.00
2018-05-10T06:17:16.013Z,90.39
2018-05-10T06:18:16.024Z,89.81
2018-05-10T06:19:16.032Z,89.14
2018-05-10T06:20:16.043Z,89.33
2018-05-10T06:21:16.055Z,87.61
2018-05-10T06:22:16.079Z,87.41
2018-05-10T06:23:16.087Z,89.43
2018-05-10T06:24:16.092Z,89.37
2018-05-10T06:25:16.228Z,88.66
2018-05-10T06:26:16.118Z,88.90
2018-05-10T06:27:16.128Z,89.66
2018-05-10T06:28:16.140Z,89.09
2018-05-10T06:29:16.152Z,87.74
2018-05-10T06:30:16.167Z,87.84
2018-05-10T06:31:16.171Z,88.32
2018-05-10T06:32:16.193Z,88.42
2018-05-10T06:33:16.197Z,88.51
2018-05-10T06:34:16.212Z,88.70
2018-05-10T06:35:16.219Z,87.37
2018-05-10T06:36:16.230Z,86.88
2018-05-10T06:37:16.243Z,86.12
2018-05-10T06:38:16.254Z,85.74
2018-05-10T06:39:16.266Z,85.16
2018-05-10T06:40:16.280Z,85.06
2018-05-10T06:41:16.286Z,86.21
2018-05-10T06:42:16.301Z,86.88
2018-05-10T06:43:16.313Z,87.74
2018-05-10T06:44:16.326Z,87.46
2018-05-10T06:45:16.342Z,87.46
2018-05-10T06:46:16.374Z,86.54
2018-05-10T06:47:16.364Z,85.83
2018-05-10T06:48:16.370Z,86.12
2018-05-10T06:49:16.383Z,86.35
2018-05-10T06:50:16.396Z,86.74
2018-05-10T06:51:16.409Z,86.16
2018-05-10T06:52:25.234Z,86.83
2018-05-10T06:54:22.329Z,86.93
2018-05-10T06:56:55.304Z,86.54
2018-05-10T06:57:53.212Z,87.70
2018-05-10T06:59:48.860Z,86.83
2018-05-10T07:00:48.754Z,87.41
2018-05-10T07:02:56.100Z,86.45
2018-05-10T07:03:54.207Z,87.60
2018-05-10T07:05:51.935Z,88.65
2018-05-10T07:06:50.676Z,86.93
2018-05-10T07:08:56.549Z,85.78
2018-05-10T07:09:55.601Z,86.97
2018-05-10T07:12:04.375Z,86.97
2018-05-10T07:14:36.194Z,87.41
2018-05-10T07:17:14.396Z,89.13
2018-05-10T07:18:11.450Z,88.84
2018-05-10T07:20:07.015Z,89.71
2018-05-10T07:21:05.356Z,89.51
2018-05-10T07:23:14.435Z,88.75
2018-05-10T07:24:15.906Z,88.89
2018-05-10T07:26:21.181Z,89.37
2018-05-10T07:27:18.177Z,87.64
2018-05-10T07:29:15.302Z,85.92
2018-05-10T07:31:49.480Z,87.55
2018-05-10T07:34:26.707Z,86.21
2018-05-10T07:35:22.672Z,86.21
2018-05-10T07:37:17.524Z,84.28
2018-05-10T07:39:51.930Z,83.91
2018-05-10T07:40:51.010Z,83.91
2018-05-10T07:42:57.116Z,83.47
2018-05-10T07:45:33.375Z,85.82
2018-05-10T07:46:35.032Z,85.44
2018-05-10T07:48:37.933Z,86.68
2018-05-10T07:51:10.590Z,85.48
2018-05-10T07:52:09.391Z,85.05
2018-05-10T07:54:16.058Z,85.53
2018-05-10T07:55:15.821Z,84.77
2018-05-10T07:57:21.654Z,84.95
2018-05-10T07:58:19.420Z,85.53
2018-05-10T08:00:07.330Z,87.07
2018-05-10T08:02:48.597Z,86.68
2018-05-10T08:03:49.728Z,87.93
2018-05-10T08:05:55.129Z,88.12
2018-05-10T08:06:54.038Z,89.18
2018-05-10T08:10:23.013Z,89.47
2018-05-10T08:11:21.947Z,89.27
2018-05-10T08:13:18.680Z,89.47
2018-05-10T08:14:28.466Z,90.38
2018-05-10T08:18:06.136Z,90.04
2018-05-10T08:20:39.690Z,91.00
2018-05-10T08:21:30.996Z,89.23
2018-05-10T08:23:45.328Z,90.76
2018-05-10T08:24:44.191Z,90.42
2018-05-10T08:26:47.975Z,90.71
2018-05-10T08:27:49.005Z,91.67
2018-05-10T08:29:55.926Z,89.51
2018-05-10T08:32:29.623Z,90.38
2018-05-10T08:33:28.604Z,90.76
2018-05-10T08:35:24.008Z,89.51
2018-05-10T08:36:25.036Z,90.09
2018-05-10T08:38:27.578Z,89.61
2018-05-10T08:40:52.916Z,90.28
2018-05-10T08:41:52.432Z,90.67
2018-05-10T08:42:52.499Z,90.28
2018-05-10T08:43:52.701Z,91.43
2018-05-10T08:44:52.560Z,90.67
2018-05-10T08:45:52.476Z,89.23
2018-05-10T08:46:52.527Z,90.00
2018-05-10T08:47:52.535Z,91.53
2018-05-10T08:48:52.513Z,91.53
2018-05-10T08:49:52.523Z,90.76
2018-05-10T08:50:52.541Z,90.28
2018-05-10T08:51:52.647Z,87.79
2018-05-10T08:52:52.572Z,89.51
2018-05-10T08:53:52.572Z,89.51
2018-05-10T08:54:52.591Z,89.71
2018-05-10T08:55:52.625Z,91.14
2018-05-10T08:56:52.620Z,91.53
2018-05-10T08:57:52.703Z,91.82
2018-05-10T08:58:52.627Z,91.53
2018-05-10T08:59:52.723Z,90.43
2018-05-10T09:00:54.009Z,92.06
2018-05-10T09:01:52.667Z,91.96
2018-05-10T09:02:52.686Z,93.40
2018-05-10T09:03:52.702Z,93.59
2018-05-10T09:04:52.708Z,94.07
2018-05-10T09:05:52.716Z,92.25
2018-05-10T09:06:52.728Z,91.39
2018-05-10T09:07:52.736Z,92.15
2018-05-10T09:08:52.745Z,93.21
2018-05-10T09:09:52.761Z,91.77
2018-05-10T09:10:52.771Z,91.96
2018-05-10T09:11:52.780Z,93.21
2018-05-10T09:12:52.794Z,93.69
2018-05-10T09:13:52.816Z,93.59
2018-05-10T09:14:52.819Z,92.63
2018-05-10T09:15:52.827Z,94.26
2018-05-10T09:16:52.847Z,93.40
2018-05-10T09:17:52.869Z,96.70
2018-05-10T09:18:52.872Z,94.98
2018-05-10T09:19:52.871Z,94.12
2018-05-10T09:20:52.887Z,95.26
2018-05-10T09:21:52.957Z,93.83
2018-05-10T09:22:52.911Z,92.30
2018-05-10T09:23:52.925Z,91.34
2018-05-10T09:24:52.947Z,90.09
2018-05-10T09:25:53.014Z,90.33
2018-05-10T09:26:52.962Z,90.28
2018-05-10T09:27:52.996Z,90.81
2018-05-10T09:28:52.982Z,89.90
2018-05-10T09:29:52.996Z,89.04
2018-05-10T09:30:53.005Z,88.56
2018-05-10T09:31:53.029Z,89.42
2018-05-10T09:32:53.028Z,90.47
2018-05-10T09:33:53.055Z,89.61
2018-05-10T09:34:53.155Z,88.98
2018-05-10T09:35:53.066Z,89.27
2018-05-10T09:36:53.121Z,90.42
2018-05-10T09:37:53.091Z,85.92
2018-05-10T09:38:53.099Z,85.44
2018-05-10T09:40:00.919Z,86.97
2018-05-10T09:41:57.163Z,85.92
2018-05-10T09:42:57.288Z,85.44
2018-05-10T09:43:57.207Z,85.05
2018-05-10T09:44:57.401Z,84.33
2018-05-10T09:45:57.187Z,83.08
2018-05-10T09:46:57.329Z,83.75
2018-05-10T09:47:57.251Z,84.33
2018-05-10T09:48:57.340Z,83.56
2018-05-10T09:49:57.275Z,80.87
2018-05-10T09:50:57.244Z,81.84
2018-05-10T09:51:57.294Z,83.31
2018-05-10T09:52:57.270Z,81.20
2018-05-10T09:53:57.288Z,81.93
2018-05-10T09:54:57.412Z,81.10
2018-05-10T09:55:57.312Z,83.60
2018-05-10T09:56:57.323Z,83.51
2018-05-10T09:57:57.337Z,82.93
2018-05-10T09:58:57.345Z,81.87
2018-05-10T09:59:57.449Z,81.49
2018-05-10T10:00:57.370Z,79.67
2018-05-10T10:01:58.039Z,79.76
2018-05-10T10:02:57.398Z,79.96
2018-05-10T10:07:35.214Z,79.32
2018-05-10T10:08:35.208Z,78.90
2018-05-10T10:10:28.272Z,79.38
2018-05-10T10:11:28.238Z,79.47
2018-05-10T10:13:32.451Z,79.53
2018-05-10T10:14:32.475Z,79.91
2018-05-10T10:16:37.006Z,83.94
2018-05-10T10:17:36.971Z,84.91
2018-05-10T10:19:41.462Z,83.85
2018-05-10T10:20:41.473Z,85.19
2018-05-10T10:22:46.094Z,83.12
2018-05-10T10:23:46.116Z,83.03
2018-05-10T10:25:50.641Z,81.59
2018-05-10T10:26:50.478Z,81.87
2018-05-10T10:27:50.516Z,82.93
2018-05-10T10:28:50.511Z,83.74
2018-05-10T10:29:50.528Z,82.30
2018-05-10T10:30:50.529Z,82.10
2018-05-10T10:31:50.549Z,83.26
2018-05-10T10:32:50.561Z,80.66
2018-05-10T10:33:50.573Z,80.28
2018-05-10T10:34:50.595Z,81.72
2018-05-10T10:35:50.596Z,79.80
2018-05-10T10:36:50.606Z,79.75
2018-05-10T10:37:50.624Z,80.80
2018-05-10T10:38:50.636Z,77.44
2018-05-10T10:39:50.647Z,76.19
2018-05-10T10:40:50.662Z,76.39
2018-05-10T10:41:50.676Z,78.21
2018-05-10T10:42:50.702Z,78.59
2018-05-10T10:43:50.708Z,79.55
2018-05-10T10:44:50.728Z,78.27
2018-05-10T10:45:50.731Z,78.36
2018-05-10T10:46:50.745Z,77.88
2018-05-10T10:47:50.762Z,78.36
2018-05-10T10:48:50.779Z,78.17
2018-05-10T10:49:50.795Z,76.39
2018-05-10T10:50:50.804Z,79.75
2018-05-10T10:51:50.882Z,79.75
2018-05-10T10:52:50.890Z,77.15
2018-05-10T10:53:50.845Z,76.67
2018-05-10T10:54:50.876Z,75.75
2018-05-10T10:55:50.875Z,77.86
2018-05-10T10:56:50.882Z,77.29
2018-05-10T10:57:50.905Z,80.13
2018-05-10T10:58:50.913Z,78.30
2018-05-10T10:59:50.936Z,77.21
2018-05-10T11:00:50.945Z,77.44
2018-05-10T11:01:50.964Z,77.06
2018-05-10T11:02:50.967Z,77.25
2018-05-10T11:03:50.982Z,77.63
2018-05-10T11:04:51.056Z,76.06
2018-05-10T11:05:51.018Z,77.40
2018-05-10T11:06:51.029Z,78.75
2018-05-10T11:07:51.048Z,79.22
2018-05-10T11:08:51.116Z,79.90
2018-05-10T11:09:51.083Z,81.19
2018-05-10T11:10:51.081Z,80.51
2018-05-10T11:11:51.097Z,78.84
2018-05-10T11:12:51.122Z,77.11
2018-05-10T11:13:51.121Z,77.25
2018-05-10T11:14:51.138Z,77.73
2018-05-10T11:15:51.175Z,79.46
2018-05-10T11:16:51.164Z,77.34
2018-05-10T11:17:51.385Z,76.29
2018-05-10T11:18:51.194Z,74.02
2018-05-10T11:19:51.210Z,74.60
2018-05-10T11:20:51.309Z,72.67
2018-05-10T11:21:51.239Z,70.17
2018-05-10T11:22:51.246Z,70.34
2018-05-10T11:23:51.259Z,71.76
2018-05-10T11:24:51.273Z,70.38
2018-05-10T11:25:51.289Z,69.10
2018-05-10T11:26:51.430Z,67.65
2018-05-10T11:27:51.317Z,68.30
2018-05-10T11:28:51.332Z,66.24
2018-05-10T11:29:51.357Z,67.94
2018-05-10T11:30:51.365Z,65.75
2018-05-10T11:31:51.384Z,64.50
2018-05-10T11:32:51.494Z,64.69
2018-05-10T11:33:51.416Z,66.11
2018-05-10T11:34:51.436Z,65.01
2018-05-10T11:35:51.455Z,65.05
2018-05-10T11:36:51.467Z,64.34
2018-05-10T11:37:51.487Z,61.25
2018-05-10T11:38:51.502Z,63.02
2018-05-10T11:39:51.516Z,64.25
2018-05-10T11:40:51.533Z,66.78
2018-05-10T11:41:51.549Z,66.81
2018-05-10T11:42:51.570Z,66.75
2018-05-10T11:43:51.584Z,66.11
2018-05-10T11:44:51.602Z,64.56
2018-05-10T11:45:51.618Z,64.56
2018-05-10T11:46:51.650Z,64.63
2018-05-10T11:47:51.655Z,65.40
2018-05-10T11:48:51.673Z,64.69
2018-05-10T11:49:51.685Z,65.50
2018-05-10T11:50:51.701Z,64.53
2018-05-10T11:51:51.720Z,64.66
2018-05-10T11:52:51.743Z,64.56
2018-05-10T11:53:51.754Z,63.37
2018-05-10T11:54:51.770Z,61.09
2018-05-10T11:55:51.786Z,59.90
2018-05-10T11:56:51.804Z,60.06
2018-05-10T11:57:51.818Z,59.07
2018-05-10T11:58:51.842Z,58.40
2018-05-10T11:59:51.861Z,59.25
2018-05-10T12:00:51.875Z,57.38
2018-05-10T12:01:51.888Z,53.47
2018-05-10T12:02:51.909Z,56.00
2018-05-10T12:03:51.929Z,59.13
2018-05-10T12:04:51.943Z,61.48
2018-05-10T12:05:51.971Z,60.38
2018-05-10T12:06:51.976Z,61.51
2018-05-10T12:07:51.996Z,63.24
2018-05-10T12:08:52.013Z,60.51
2018-05-10T12:09:52.031Z,59.99
2018-05-10T12:10:52.047Z,58.25
2018-05-10T12:11:52.064Z,56.21
2018-05-10T12:12:52.085Z,53.21
2018-05-10T12:13:52.104Z,52.51
2018-05-10T12:14:52.128Z,50.57
2018-05-10T12:15:52.140Z,50.21
2018-05-10T12:16:52.168Z,48.08
2018-05-10T12:17:52.182Z,51.50
2018-05-10T12:18:52.200Z,53.99
2018-05-10T12:19:52.221Z,51.81
2018-05-10T12:20:52.238Z,53.49
2018-05-10T12:21:52.292Z,55.55
2018-05-10T12:22:52.284Z,57.76
2018-05-10T12:23:52.302Z,54.37
2018-05-10T12:24:52.320Z,54.67
2018-05-10T12:25:52.340Z,51.11
2018-05-10T12:26:52.360Z,50.07
2018-05-10T12:27:52.386Z,47.08
2018-05-10T12:28:52.406Z,44.73
2018-05-10T12:29:52.440Z,45.58
2018-05-10T12:30:52.659Z,48.42
2018-05-10T12:31:52.483Z,51.47
2018-05-10T12:32:52.486Z,52.87
2018-05-10T12:33:52.509Z,55.67
2018-05-10T12:34:52.535Z,54.55
2018-05-10T12:35:52.549Z,54.65
2018-05-10T12:36:52.576Z,52.45
2018-05-10T12:37:52.590Z,50.55
2018-05-10T12:38:52.610Z,49.77
2018-05-10T12:39:52.631Z,51.06
2018-05-10T12:40:52.718Z,52.09
2018-05-10T12:41:52.673Z,51.90
2018-05-10T12:42:52.692Z,50.84
2018-05-10T12:43:52.729Z,50.70
2018-05-10T12:44:52.734Z,50.21
2018-05-10T12:45:52.762Z,49.19
2018-05-10T12:46:52.770Z,47.06
2018-05-10T12:47:52.792Z,47.04
2018-05-10T12:48:52.818Z,47.09
2018-05-10T12:49:52.835Z,45.87
2018-05-10T12:50:52.855Z,47.67
2018-05-10T12:51:52.872Z,48.13
2018-05-10T12:52:52.914Z,48.47
2018-05-10T12:53:52.912Z,49.10
2018-05-10T12:54:52.935Z,50.59
2018-05-10T12:55:52.966Z,52.55
2018-05-10T12:56:52.976Z,54.49
2018-05-10T12:57:52.988Z,52.48
2018-05-10T12:58:53.012Z,50.77
2018-05-10T12:59:53.033Z,48.81
2018-05-10T13:00:53.112Z,49.95
2018-05-10T13:01:53.067Z,50.12
2018-05-10T13:02:53.092Z,49.24
2018-05-10T13:03:53.118Z,51.68
2018-05-10T13:04:53.124Z,52.72
2018-05-10T13:05:53.150Z,53.88
2018-05-10T13:06:53.178Z,54.05
2018-05-10T13:07:53.210Z,54.69
2018-05-10T13:08:53.203Z,55.46
2018-05-10T13:09:53.225Z,55.18
2018-05-10T13:10:53.241Z,56.66
2018-05-10T13:11:53.259Z,57.62
2018-05-10T13:12:53.296Z,59.33
2018-05-10T13:13:53.296Z,59.14
2018-05-10T13:14:53.314Z,61.25
2018-05-10T13:15:53.333Z,60.10
2018-05-10T13:16:53.363Z,60.20
2018-05-10T13:17:53.368Z,60.84
2018-05-10T13:18:53.385Z,61.42
2018-05-10T13:19:53.401Z,62.64
2018-05-10T13:20:53.420Z,65.43
2018-05-10T13:21:53.436Z,64.86
2018-05-10T13:22:53.467Z,63.86
2018-05-10T13:23:53.580Z,64.92
2018-05-10T13:24:53.529Z,65.69
2018-05-10T13:25:53.503Z,62.80
2018-05-10T13:26:53.521Z,63.02
2018-05-10T13:27:53.535Z,61.87
2018-05-10T13:28:53.622Z,63.22
2018-05-10T13:29:53.590Z,62.93
2018-05-10T13:30:53.598Z,62.35
2018-05-10T13:31:53.600Z,62.54
2018-05-10T13:32:53.616Z,63.70
2018-05-10T13:33:53.645Z,64.18
2018-05-10T13:34:53.657Z,62.83
2018-05-10T13:35:53.665Z,62.93
2018-05-10T13:36:53.681Z,62.93
2018-05-10T13:37:53.694Z,64.28
2018-05-10T13:38:53.712Z,63.99
2018-05-10T13:39:53.727Z,64.08
2018-05-10T13:40:53.734Z,63.22
2018-05-10T13:41:53.754Z,64.28
2018-05-10T13:42:53.772Z,63.22
2018-05-10T13:43:53.787Z,62.16
2018-05-10T13:44:53.799Z,64.18
2018-05-10T13:45:53.810Z,63.12
2018-05-10T13:46:53.838Z,62.74
2018-05-10T13:47:53.844Z,64.47
2018-05-10T13:48:53.855Z,63.70
2018-05-10T13:49:53.874Z,64.76
2018-05-10T13:50:53.889Z,64.47